Time;durP1;ratioP1;P1;durP2;ratioP2;P2;SDS_P1;SDS_P2;PMS_P1;PMS_P2;Temp;Humidity;BMP_temperature;BMP_pressure;BME280_temperature;BME280_humidity;BME280_pressure;Samples;Min_cycle;Max_cycle;Signal;HPM_P1;HPM_P2
2022/02/27 00:00:12;;;;;;;39.30;19.40;;;;;;;3.50;65.37;101986.10;106868;1267;107887;-70
2022/02/27 00:03:01;;;;;;;34.70;18.20;;;;;;;3.48;65.57;101987.94;107802;1268;138080;-71
2022/02/27 00:05:29;;;;;;;33.40;16.80;;;;;;;3.46;65.71;101987.02;107930;1268;94702;-72
2022/02/27 00:07:58;;;;;;;30.80;15.90;;;;;;;3.44;65.70;101990.95;107891;1267;109245;-71
2022/02/27 00:10:27;;;;;;;35.20;16.80;;;;;;;3.44;65.62;101988.52;107838;1268;137994;-71
2022/02/27 00:12:56;;;;;;;32.50;16.00;;;;;;;3.43;65.79;101991.95;107890;1268;109992;-71
2022/02/27 00:15:24;;;;;;;28.40;15.00;;;;;;;3.45;65.88;101992.16;106505;1268;138681;-71
2022/02/27 00:17:53;;;;;;;29.70;16.00;;;;;;;3.48;66.09;101992.40;106454;1268;97863;-71
2022/02/27 00:20:22;;;;;;;28.00;15.20;;;;;;;3.48;66.02;101991.54;106355;1268;137441;-71
2022/02/27 00:22:50;;;;;;;31.70;16.30;;;;;;;3.51;66.00;101997.12;107312;1267;108133;-71
2022/02/27 00:25:19;;;;;;;29.10;16.00;;;;;;;3.53;66.06;102002.66;107891;1268;108750;-72
2022/02/27 00:27:48;;;;;;;29.50;15.50;;;;;;;3.52;66.24;102006.61;106239;1268;137806;-72
2022/02/27 00:30:17;;;;;;;28.40;14.40;;;;;;;3.51;66.05;102008.30;106398;1268;96629;-71
2022/02/27 00:32:45;;;;;;;28.80;14.50;;;;;;;3.49;66.28;102011.34;106254;1268;137619;-69
2022/02/27 00:35:14;;;;;;;25.90;13.00;;;;;;;3.45;66.41;102008.66;106407;1268;108483;-70
2022/02/27 00:37:44;;;;;;;24.80;11.80;;;;;;;3.41;66.38;102008.21;107752;1267;108887;-70
2022/02/27 00:40:13;;;;;;;27.10;12.50;;;;;;;3.39;66.69;102004.02;107848;1267;138698;-71
2022/02/27 00:42:41;;;;;;;27.80;12.00;;;;;;;3.39;66.69;102004.55;107969;1267;94579;-70
2022/02/27 00:45:10;;;;;;;22.20;12.20;;;;;;;3.41;66.80;102006.66;107608;1268;163288;-71
2022/02/27 00:47:39;;;;;;;29.10;12.40;;;;;;;3.42;66.90;102003.09;107960;1268;108979;-70
2022/02/27 00:50:09;;;;;;;22.50;12.20;;;;;;;3.47;67.01;102004.41;107801;1267;138336;-71
2022/02/27 00:52:38;;;;;;;25.80;12.30;;;;;;;3.51;67.01;102003.82;107957;1267;94575;-71
2022/02/27 00:55:09;;;;;;;23.40;12.00;;;;;;;3.55;66.85;102002.89;107947;1268;94650;-71
2022/02/27 00:57:38;;;;;;;23.40;12.80;;;;;;;3.59;66.92;102005.76;107883;1268;138075;-71
2022/02/27 01:00:10;;;;;;;31.00;12.80;;;;;;;3.59;66.80;102006.10;107968;1267;107516;-71
2022/02/27 01:02:40;;;;;;;25.40;13.10;;;;;;;3.58;66.81;102007.42;107757;1268;137792;-71
2022/02/27 01:05:10;;;;;;;27.40;13.40;;;;;;;3.56;66.71;102010.13;107957;1268;94684;-71
2022/02/27 01:07:39;;;;;;;26.40;12.30;;;;;;;3.54;66.68;102009.05;107935;1267;94763;-71
2022/02/27 01:10:09;;;;;;;27.40;13.10;;;;;;;3.51;66.78;102010.52;107824;1268;138249;-71
2022/02/27 01:12:37;;;;;;;23.60;12.80;;;;;;;3.50;66.75;102006.05;107942;1267;108799;-71
2022/02/27 01:15:08;;;;;;;27.90;12.80;;;;;;;3.51;67.04;102008.99;107820;1267;139592;-71
2022/02/27 01:17:36;;;;;;;28.20;13.60;;;;;;;3.52;66.84;102010.05;107976;1268;94559;-72
2022/02/27 01:20:08;;;;;;;28.20;13.40;;;;;;;3.52;67.05;102010.23;107935;1268;94504;-71
2022/02/27 01:22:37;;;;;;;32.60;14.10;;;;;;;3.52;66.93;102004.88;107804;1268;139360;-71
2022/02/27 01:25:08;;;;;;;29.90;13.80;;;;;;;3.50;67.00;102002.77;107968;1267;107829;-71
2022/02/27 01:27:36;;;;;;;28.50;12.70;;;;;;;3.47;66.97;102004.59;106502;1268;137572;-70
2022/02/27 01:30:10;;;;;;;28.90;12.90;;;;;;;3.42;66.90;101997.59;106286;1268;96646;-71
2022/02/27 01:32:38;;;;;;;27.50;12.10;;;;;;;3.35;66.91;101998.26;106246;1268;138421;-71
2022/02/27 01:35:09;;;;;;;21.50;11.50;;;;;;;3.28;67.04;101996.04;106233;1271;110600;-71
2022/02/27 01:37:37;;;;;;;21.60;10.50;;;;;;;3.22;67.06;101999.48;106338;1268;109020;-71
2022/02/27 01:40:08;;;;;;;18.40;9.80;;;;;;;3.20;67.25;101997.34;106263;1268;138319;-69
2022/02/27 01:42:39;;;;;;;17.70;9.20;;;;;;;3.16;67.36;101992.77;107909;1267;95760;-72
2022/02/27 01:45:09;;;;;;;20.30;8.90;;;;;;;3.13;67.33;101996.48;107514;1268;138647;-71
2022/02/27 01:47:40;;;;;;;16.50;8.20;;;;;;;3.10;67.57;102002.11;106398;1268;111462;-71
2022/02/27 01:50:10;;;;;;;18.00;8.50;;;;;;;3.08;67.62;102000.15;106416;1268;106856;-72
2022/02/27 01:52:41;;;;;;;19.50;8.50;;;;;;;3.07;67.62;102003.55;106293;1268;137449;-72
2022/02/27 01:55:11;;;;;;;17.40;8.50;;;;;;;3.00;67.49;102004.40;106407;1268;96347;-71
2022/02/27 01:57:43;;;;;;;18.20;8.60;;;;;;;2.95;67.56;102005.83;106287;1267;137230;-71
2022/02/27 02:00:15;;;;;;;20.20;8.30;;;;;;;2.89;67.76;102003.06;106262;1270;109975;-72
2022/02/27 02:02:45;;;;;;;16.50;7.90;;;;;;;2.80;67.80;102000.09;106284;1268;137693;-71
2022/02/27 02:05:15;;;;;;;17.30;7.90;;;;;;;2.74;67.89;102001.28;106293;1268;109152;-71
2022/02/27 02:07:47;;;;;;;18.10;8.00;;;;;;;2.67;67.98;101997.80;106224;1268;96608;-71
2022/02/27 02:10:15;;;;;;;13.90;7.30;;;;;;;2.60;68.06;101998.81;106229;1268;137802;-70
2022/02/27 02:12:49;;;;;;;15.30;7.10;;;;;;;2.56;68.17;102000.77;106380;1268;110996;-69
2022/02/27 02:15:18;;;;;;;15.90;7.70;;;;;;;2.55;68.34;102005.20;107125;1268;138724;-71
2022/02/27 02:17:49;;;;;;;15.40;7.10;;;;;;;2.51;68.36;102009.05;107859;1268;108813;-71
2022/02/27 02:20:19;;;;;;;16.20;7.50;;;;;;;2.51;68.47;102007.99;107877;1268;94677;-71
2022/02/27 02:22:57;;;;;;;16.60;7.70;;;;;;;2.47;68.43;102006.68;107774;1268;137902;-71
2022/02/27 02:25:26;;;;;;;13.40;6.90;;;;;;;2.41;68.30;102002.23;107336;1268;111300;-71
2022/02/27 02:27:55;;;;;;;15.70;7.80;;;;;;;2.33;68.38;102005.45;106301;1268;137495;-70
2022/02/27 02:30:24;;;;;;;15.00;7.70;;;;;;;2.26;68.57;102001.09;106310;1267;108985;-72
2022/02/27 02:32:54;;;;;;;13.90;7.30;;;;;;;2.19;68.70;102004.48;106198;1269;137499;-72
2022/02/27 02:35:25;;;;;;;15.90;7.20;;;;;;;2.13;68.73;102005.66;106274;1268;96352;-71
2022/02/27 02:37:55;;;;;;;17.60;7.30;;;;;;;2.07;68.84;102005.33;106356;1268;111750;-72
2022/02/27 02:40:24;;;;;;;12.30;6.50;;;;;;;2.05;69.08;102006.83;106251;1267;138046;-71
2022/02/27 02:42:54;;;;;;;12.80;6.80;;;;;;;2.06;69.32;102004.95;106311;1268;108350;-71
2022/02/27 02:45:24;;;;;;;14.70;6.90;;;;;;;2.11;69.44;102003.55;106281;1268;137826;-72
2022/02/27 02:47:55;;;;;;;15.00;7.70;;;;;;;2.12;69.36;102006.16;106225;1270;96481;-71
2022/02/27 02:50:26;;;;;;;11.60;6.50;;;;;;;2.17;69.41;102007.17;106355;1268;110190;-72
2022/02/27 02:52:55;;;;;;;12.70;6.70;;;;;;;2.18;69.42;102012.02;106245;1268;137193;-73
2022/02/27 02:55:25;;;;;;;12.30;7.10;;;;;;;2.19;69.45;102015.84;107846;1268;108809;-70
2022/02/27 02:57:53;;;;;;;15.50;6.60;;;;;;;2.20;69.42;102018.27;107831;1268;137822;-70
2022/02/27 03:00:22;;;;;;;14.20;6.60;;;;;;;2.19;69.48;102023.20;107961;1268;95504;-71
2022/02/27 03:02:50;;;;;;;13.50;6.30;;;;;;;2.19;69.53;102027.66;106298;1258;138118;-71
2022/02/27 03:05:20;;;;;;;15.00;6.80;;;;;;;2.21;69.67;102028.60;106271;1271;108798;-71
2022/02/27 03:07:48;;;;;;;14.70;6.70;;;;;;;2.26;69.71;102032.84;106380;1270;109054;-72
2022/02/27 03:10:17;;;;;;;14.10;6.50;;;;;;;2.30;69.67;102031.77;106217;1268;138343;-72
2022/02/27 03:12:45;;;;;;;12.80;6.80;;;;;;;2.33;69.63;102034.43;106315;1268;96452;-71
2022/02/27 03:15:13;;;;;;;13.70;7.10;;;;;;;2.37;69.55;102031.13;106243;1268;137341;-72
2022/02/27 03:17:42;;;;;;;14.70;7.00;;;;;;;2.36;69.32;102028.72;106266;1268;108929;-71
2022/02/27 03:20:12;;;;;;;11.90;7.10;;;;;;;2.33;69.47;102030.67;106398;1268;108866;-71
2022/02/27 03:22:40;;;;;;;15.40;7.50;;;;;;;2.31;69.44;102033.34;106153;1268;137306;-72
2022/02/27 03:25:09;;;;;;;18.30;7.80;;;;;;;2.29;69.35;102039.98;106359;1268;96340;-71
2022/02/27 03:27:38;;;;;;;14.70;7.50;;;;;;;2.24;69.29;102040.16;106947;1268;137300;-72
2022/02/27 03:30:08;;;;;;;16.50;7.60;;;;;;;2.22;69.41;102042.86;107541;1268;108038;-72
2022/02/27 03:32:37;;;;;;;16.90;8.10;;;;;;;2.21;69.47;102047.45;106775;1268;138551;-71
2022/02/27 03:35:07;;;;;;;21.60;9.20;;;;;;;2.19;69.51;102051.52;106312;1268;96565;-71
2022/02/27 03:37:36;;;;;;;18.10;8.50;;;;;;;2.19;69.57;102052.20;106288;1268;96357;-71
2022/02/27 03:40:06;;;;;;;17.90;9.00;;;;;;;2.16;69.41;102055.37;107250;1268;137320;-71
2022/02/27 03:42:35;;;;;;;16.20;9.00;;;;;;;2.15;69.55;102055.52;106548;1268;108698;-72
2022/02/27 03:45:06;;;;;;;17.10;9.00;;;;;;;2.16;69.57;102056.05;106220;1268;137634;-71
2022/02/27 03:47:34;;;;;;;18.00;10.00;;;;;;;2.09;69.44;102051.02;106349;1268;96507;-72
2022/02/27 03:50:04;;;;;;;16.90;9.60;;;;;;;2.01;69.58;102055.59;106303;1268;96587;-71
2022/02/27 03:52:34;;;;;;;18.20;9.50;;;;;;;1.94;69.74;102055.02;106146;1271;137275;-71
2022/02/27 03:55:04;;;;;;;20.80;10.00;;;;;;;1.89;70.00;102053.48;106333;1268;108820;-70
2022/02/27 03:57:33;;;;;;;18.00;9.40;;;;;;;1.80;69.91;102056.64;106195;1268;139969;-71
2022/02/27 04:00:04;;;;;;;20.70;9.90;;;;;;;1.76;70.07;102058.37;106382;1268;96504;-71
2022/02/27 04:02:40;;;;;;;19.80;9.70;;;;;;;1.74;70.19;102057.81;106246;1268;138062;-70
2022/02/27 04:05:10;;;;;;;21.30;11.30;;;;;;;1.76;70.40;102059.40;106304;1271;110739;-70
2022/02/27 04:07:38;;;;;;;21.80;12.70;;;;;;;1.78;70.35;102059.81;106384;1271;109229;-69
2022/02/27 04:10:07;;;;;;;21.30;13.30;;;;;;;1.79;70.39;102059.52;107108;1270;137789;-71
2022/02/27 04:12:36;;;;;;;26.20;14.80;;;;;;;1.79;70.34;102054.71;107889;1270;94794;-70
2022/02/27 04:15:06;;;;;;;25.40;14.40;;;;;;;1.74;70.30;102055.04;107799;1268;138581;-71
2022/02/27 04:17:35;;;;;;;26.30;14.20;;;;;;;1.66;70.31;102060.29;107855;1269;110667;-71
2022/02/27 04:20:05;;;;;;;29.20;14.90;;;;;;;1.60;70.27;102057.50;106623;1270;107894;-71
2022/02/27 04:22:34;;;;;;;27.40;14.70;;;;;;;1.56;70.58;102053.59;107767;1269;138154;-71
2022/02/27 04:25:04;;;;;;;24.80;13.40;;;;;;;1.58;70.73;102054.49;107839;1268;95919;-71
2022/02/27 04:27:33;;;;;;;23.40;12.60;;;;;;;1.61;70.82;102057.19;107801;1269;138268;-71
2022/02/27 04:30:01;;;;;;;24.30;12.20;;;;;;;1.64;70.81;102059.02;107867;1269;110182;-71
2022/02/27 04:32:30;;;;;;;27.60;13.20;;;;;;;1.66;70.82;102056.85;107915;1268;108811;-70
2022/02/27 04:34:59;;;;;;;23.60;13.20;;;;;;;1.64;70.66;102056.29;107772;1271;138663;-71
2022/02/27 04:37:30;;;;;;;23.40;12.20;;;;;;;1.62;70.72;102057.25;107879;1268;96511;-71
2022/02/27 04:39:58;;;;;;;24.00;12.70;;;;;;;1.60;70.77;102060.59;107765;1270;137598;-71
2022/02/27 04:42:27;;;;;;;24.20;13.20;;;;;;;1.62;70.84;102060.48;107932;1270;108932;-71
2022/02/27 04:44:55;;;;;;;28.00;13.20;;;;;;;1.66;71.15;102062.69;107720;1271;138051;-71
2022/02/27 04:47:24;;;;;;;28.00;13.90;;;;;;;1.70;70.96;102062.47;107891;1270;109052;-71
2022/02/27 04:49:52;;;;;;;27.30;14.40;;;;;;;1.67;70.79;102059.98;106523;1270;96587;-72
2022/02/27 04:52:21;;;;;;;25.80;13.40;;;;;;;1.63;70.95;102059.35;106211;1268;137445;-72
2022/02/27 04:54:50;;;;;;;27.20;13.40;;;;;;;1.55;70.77;102061.96;106358;1271;110532;-72
2022/02/27 04:57:18;;;;;;;26.80;13.90;;;;;;;1.51;71.17;102062.54;106179;1271;138551;-70
2022/02/27 04:59:47;;;;;;;25.70;13.60;;;;;;;1.52;71.22;102063.08;106277;1271;106746;-71
2022/02/27 05:02:16;;;;;;;27.80;14.00;;;;;;;1.57;71.34;102070.25;107893;1270;94861;-71
2022/02/27 05:04:45;;;;;;;27.90;14.20;;;;;;;1.57;71.26;102071.62;107761;1268;137747;-72
2022/02/27 05:07:14;;;;;;;27.10;14.50;;;;;;;1.54;71.22;102076.34;107879;1270;111192;-72
2022/02/27 05:09:42;;;;;;;27.60;14.50;;;;;;;1.51;71.29;102082.91;107735;1271;138691;-72
2022/02/27 05:12:11;;;;;;;31.70;16.20;;;;;;;1.46;71.43;102088.60;107862;1270;109083;-72
2022/02/27 05:14:41;;;;;;;30.50;15.30;;;;;;;1.48;71.62;102090.02;107784;1270;138979;-71
2022/02/27 05:17:30;;;;;;;32.60;15.40;;;;;;;1.51;71.62;102094.58;107861;1270;94899;-71
2022/02/27 05:19:58;;;;;;;30.50;14.30;;;;;;;1.51;71.58;102094.59;107885;1268;109618;-72
2022/02/27 05:22:27;;;;;;;27.40;13.50;;;;;;;1.51;71.64;102093.38;107783;1268;139043;-71
2022/02/27 05:24:56;;;;;;;24.90;14.30;;;;;;;1.55;71.75;102098.48;106790;1269;108984;-71
2022/02/27 05:27:25;;;;;;;26.20;14.10;;;;;;;1.59;71.64;102101.02;106115;1271;139260;-71
2022/02/27 05:29:53;;;;;;;29.40;14.30;;;;;;;1.59;71.51;102109.25;106307;1271;96473;-71
2022/02/27 05:32:22;;;;;;;32.40;16.10;;;;;;;1.60;71.61;102111.70;106292;1270;109083;-71
2022/02/27 05:34:50;;;;;;;26.40;14.30;;;;;;;1.62;71.62;102112.98;106216;1271;138719;-71
2022/02/27 05:37:21;;;;;;;24.80;13.80;;;;;;;1.64;71.56;102110.11;106297;1269;108807;-71
2022/02/27 05:39:50;;;;;;;25.30;13.50;;;;;;;1.64;71.58;102108.91;106158;1271;137800;-71
2022/02/27 05:42:19;;;;;;;25.80;14.20;;;;;;;1.58;71.35;102108.02;106389;1271;96593;-71
2022/02/27 05:44:51;;;;;;;26.60;14.50;;;;;;;1.51;71.44;102112.59;106202;1269;138079;-72
2022/02/27 05:47:20;;;;;;;28.00;13.50;;;;;;;1.49;71.53;102115.08;106358;1268;108173;-72
2022/02/27 05:49:51;;;;;;;24.70;13.70;;;;;;;1.46;71.72;102111.05;106321;1269;108883;-71
2022/02/27 05:52:19;;;;;;;22.90;13.30;;;;;;;1.47;71.75;102109.54;106141;1271;138227;-71
2022/02/27 05:54:48;;;;;;;23.60;12.70;;;;;;;1.50;71.91;102108.77;106272;1271;96449;-70
2022/02/27 05:57:17;;;;;;;22.50;12.20;;;;;;;1.55;71.90;102110.65;106107;1271;139700;-72
2022/02/27 05:59:46;;;;;;;19.80;11.90;;;;;;;1.64;72.05;102110.30;106282;1268;108251;-71
2022/02/27 06:02:15;;;;;;;20.60;11.90;;;;;;;1.73;72.01;102109.38;106324;1271;108842;-71
2022/02/27 06:04:43;;;;;;;24.00;13.40;;;;;;;1.73;71.71;102108.69;106207;1270;137976;-71
2022/02/27 06:07:12;;;;;;;26.40;13.40;;;;;;;1.68;71.58;102112.48;106386;1269;96484;-72
2022/02/27 06:09:41;;;;;;;24.90;12.80;;;;;;;1.65;71.74;102111.88;106261;1271;137708;-71
2022/02/27 06:12:10;;;;;;;21.70;12.00;;;;;;;1.63;71.74;102116.59;106222;1271;109149;-72
2022/02/27 06:14:38;;;;;;;21.70;12.30;;;;;;;1.60;71.87;102117.51;106185;1271;138138;-72
2022/02/27 06:17:07;;;;;;;25.90;13.90;;;;;;;1.55;71.79;102124.86;106274;1270;96472;-72
2022/02/27 06:19:35;;;;;;;23.70;12.20;;;;;;;1.52;71.78;102122.91;106242;1270;96479;-73
2022/02/27 06:22:05;;;;;;;21.50;12.90;;;;;;;1.53;71.98;102122.91;106253;1268;140052;-72
2022/02/27 06:24:34;;;;;;;20.10;12.60;;;;;;;1.60;72.11;102124.39;106377;1269;109045;-73
2022/02/27 06:27:03;;;;;;;18.30;11.90;;;;;;;1.69;72.10;102129.34;106179;1269;137777;-71
2022/02/27 06:29:32;;;;;;;22.40;13.10;;;;;;;1.76;71.97;102130.58;106312;1270;96561;-70
2022/02/27 06:32:00;;;;;;;26.70;14.40;;;;;;;1.79;71.79;102131.02;106305;1271;96498;-70
2022/02/27 06:34:29;;;;;;;27.20;15.30;;;;;;;1.79;71.71;102133.08;106368;1268;137435;-71
2022/02/27 06:36:58;;;;;;;30.70;15.90;;;;;;;1.80;71.84;102137.24;106335;1268;108382;-71
2022/02/27 06:39:26;;;;;;;30.30;14.70;;;;;;;1.79;71.91;102137.20;106866;1270;139029;-72
2022/02/27 06:41:55;;;;;;;29.80;15.40;;;;;;;1.78;71.76;102142.66;107877;1268;95438;-72
2022/02/27 06:44:23;;;;;;;26.60;14.30;;;;;;;1.78;71.82;102143.14;107912;1270;94836;-72
2022/02/27 06:46:52;;;;;;;25.00;14.50;;;;;;;1.78;71.71;102145.21;107742;1268;138449;-72
2022/02/27 06:49:21;;;;;;;21.30;12.90;;;;;;;1.82;71.81;102148.45;107890;1268;108578;-72
2022/02/27 06:51:49;;;;;;;22.90;13.80;;;;;;;1.88;71.76;102147.96;106424;1268;138516;-71
2022/02/27 06:54:22;;;;;;;26.20;13.90;;;;;;;1.87;71.78;102147.42;106292;1270;96461;-71
2022/02/27 06:56:51;;;;;;;26.00;13.90;;;;;;;1.84;71.63;102149.54;106244;1270;137548;-72
2022/02/27 06:59:19;;;;;;;24.80;14.60;;;;;;;1.85;71.57;102153.88;106308;1271;111174;-72
2022/02/27 07:01:48;;;;;;;36.20;16.70;;;;;;;1.88;71.69;102150.69;106278;1268;109157;-72
2022/02/27 07:04:17;;;;;;;32.80;17.40;;;;;;;1.86;71.69;102157.16;106305;1270;137795;-71
2022/02/27 07:06:45;;;;;;;33.30;18.40;;;;;;;1.76;71.42;102159.91;106304;1271;96491;-71
2022/02/27 07:09:15;;;;;;;34.00;18.50;;;;;;;1.71;71.41;102169.67;106258;1271;139365;-71
2022/02/27 07:11:48;;;;;;;32.90;18.60;;;;;;;1.68;71.60;102166.66;106406;1271;111190;-71
2022/02/27 07:14:17;;;;;;;34.70;18.90;;;;;;;1.74;71.80;102164.29;106330;1271;109185;-71
2022/02/27 07:16:45;;;;;;;35.20;19.50;;;;;;;1.81;71.84;102160.96;106244;1271;138278;-71
2022/02/27 07:19:14;;;;;;;36.10;19.70;;;;;;;1.90;71.93;102160.91;106285;1271;96569;-71
2022/02/27 07:21:43;;;;;;;32.00;18.90;;;;;;;2.02;71.75;102162.84;106226;1271;137828;-72
2022/02/27 07:24:12;;;;;;;32.30;18.70;;;;;;;2.12;71.50;102168.99;106406;1271;110583;-72
2022/02/27 07:26:40;;;;;;;29.70;16.50;;;;;;;2.15;71.30;102168.25;106212;1271;138740;-71
2022/02/27 07:29:09;;;;;;;28.50;15.90;;;;;;;2.14;71.09;102169.23;106260;1270;109054;-72
2022/02/27 07:31:37;;;;;;;27.20;16.80;;;;;;;2.10;71.09;102171.17;106267;1271;96479;-71
2022/02/27 07:34:06;;;;;;;30.60;16.10;;;;;;;2.09;71.02;102172.85;106204;1271;137718;-71
2022/02/27 07:36:34;;;;;;;27.10;15.40;;;;;;;2.07;70.91;102174.00;106325;1270;110172;-71
2022/02/27 07:39:03;;;;;;;27.60;15.40;;;;;;;2.00;70.59;102176.84;106159;1269;138041;-72
2022/02/27 07:41:31;;;;;;;27.20;16.10;;;;;;;1.95;70.87;102176.14;106327;1270;109362;-70
2022/02/27 07:44:00;;;;;;;28.50;16.50;;;;;;;1.97;70.96;102176.92;106380;1271;96505;-71
2022/02/27 07:46:29;;;;;;;29.20;18.00;;;;;;;2.02;71.04;102179.15;106209;1271;138139;-72
2022/02/27 07:48:57;;;;;;;29.00;17.90;;;;;;;2.05;70.98;102177.88;106308;1268;110152;-72
2022/02/27 07:51:29;;;;;;;35.60;20.30;;;;;;;2.10;70.87;102180.60;106672;1270;137867;-71
2022/02/27 07:53:58;;;;;;;28.80;18.50;;;;;;;2.15;70.82;102181.80;107886;1269;107626;-71
2022/02/27 07:56:28;;;;;;;29.20;18.60;;;;;;;2.20;70.70;102180.09;107921;1269;94850;-72
2022/02/27 07:58:56;;;;;;;34.70;21.10;;;;;;;2.27;70.83;102179.29;107716;1268;137591;-72
2022/02/27 08:01:25;;;;;;;33.40;20.30;;;;;;;2.37;70.85;102178.41;107925;1270;110165;-71
2022/02/27 08:03:54;;;;;;;31.10;19.50;;;;;;;2.49;70.76;102178.27;107801;1269;137570;-71
2022/02/27 08:06:22;;;;;;;33.30;18.20;;;;;;;2.57;70.41;102174.42;107887;1268;108997;-72
2022/02/27 08:08:51;;;;;;;33.60;21.20;;;;;;;2.60;70.08;102175.19;107807;1269;138626;-72
2022/02/27 08:11:20;;;;;;;31.30;20.20;;;;;;;2.65;70.14;102172.42;107903;1269;94733;-71
2022/02/27 08:13:48;;;;;;;29.70;18.10;;;;;;;2.70;70.06;102175.70;107926;1269;110133;-71
2022/02/27 08:16:17;;;;;;;26.00;15.90;;;;;;;2.74;69.95;102175.30;107762;1269;138775;-70
2022/02/27 08:18:45;;;;;;;25.80;15.90;;;;;;;2.80;70.12;102174.43;107826;1270;107709;-72
2022/02/27 08:21:14;;;;;;;22.00;14.30;;;;;;;2.87;69.95;102172.42;107765;1269;139291;-72
2022/02/27 08:23:42;;;;;;;20.30;13.00;;;;;;;2.95;69.57;102178.84;107902;1270;94749;-71
2022/02/27 08:26:11;;;;;;;20.80;14.40;;;;;;;3.03;68.97;102172.88;107881;1271;110067;-71
2022/02/27 08:28:40;;;;;;;25.60;16.00;;;;;;;3.03;68.70;102175.80;107014;1269;137653;-71
2022/02/27 08:31:08;;;;;;;25.90;16.40;;;;;;;3.02;68.64;102178.35;106321;1270;107794;-71
2022/02/27 08:33:38;;;;;;;26.60;17.30;;;;;;;2.98;68.53;102179.44;106257;1271;137503;-73
2022/02/27 08:36:09;;;;;;;27.80;17.60;;;;;;;2.93;68.47;102177.42;106315;1270;97255;-71
2022/02/27 08:38:39;;;;;;;29.40;18.60;;;;;;;2.87;68.60;102175.52;107750;1270;137764;-71
2022/02/27 08:41:08;;;;;;;31.80;19.60;;;;;;;2.88;68.86;102177.80;107839;1270;109570;-72
2022/02/27 08:43:36;;;;;;;32.10;21.60;;;;;;;2.89;68.89;102176.11;107896;1270;108832;-72
2022/02/27 08:46:05;;;;;;;30.60;20.80;;;;;;;2.84;68.54;102169.08;107759;1270;137981;-71
2022/02/27 08:48:34;;;;;;;31.10;19.70;;;;;;;2.77;68.56;102170.39;107923;1268;94909;-72
2022/02/27 08:51:02;;;;;;;28.60;19.00;;;;;;;2.77;68.88;102164.88;107808;1270;139798;-72
2022/02/27 08:53:31;;;;;;;27.10;17.80;;;;;;;2.83;68.97;102169.02;107882;1269;109093;-72
2022/02/27 08:55:59;;;;;;;26.60;17.40;;;;;;;2.92;69.08;102168.11;107919;1269;107726;-72
2022/02/27 08:58:28;;;;;;;24.30;17.30;;;;;;;3.01;68.82;102166.46;107810;1268;138444;-72
2022/02/27 09:00:57;;;;;;;21.40;14.10;;;;;;;3.11;68.78;102166.08;107936;1268;94444;-72
2022/02/27 09:03:27;;;;;;;24.60;16.30;;;;;;;3.23;68.54;102170.02;107826;1269;138091;-72
2022/02/27 09:05:56;;;;;;;26.10;16.50;;;;;;;3.29;68.26;102173.65;107884;1268;107765;-72
2022/02/27 09:08:25;;;;;;;21.90;14.90;;;;;;;3.37;68.17;102170.25;107895;1268;106499;-71
2022/02/27 09:10:53;;;;;;;21.30;14.80;;;;;;;3.49;68.08;102175.92;107773;1269;141662;-71
2022/02/27 09:13:22;;;;;;;22.10;14.40;;;;;;;3.53;67.68;102175.01;107899;1269;94826;-71
2022/02/27 09:15:50;;;;;;;21.10;12.70;;;;;;;3.55;67.64;102176.95;107818;1268;137659;-72
2022/02/27 09:18:22;;;;;;;24.80;14.60;;;;;;;3.59;67.71;102178.29;107883;1270;109138;-73
2022/02/27 09:20:50;;;;;;;25.70;15.50;;;;;;;3.60;67.40;102177.09;106691;1268;137890;-71
2022/02/27 09:23:19;;;;;;;28.80;16.60;;;;;;;3.64;67.36;102180.12;106318;1271;96538;-72
2022/02/27 09:25:48;;;;;;;25.70;17.00;;;;;;;3.67;66.97;102173.48;106367;1271;96488;-72
2022/02/27 09:28:36;;;;;;;26.20;17.70;;;;;;;3.69;67.06;102174.05;106272;1270;137673;-71
2022/02/27 09:31:05;;;;;;;24.40;16.60;;;;;;;3.69;66.86;102173.54;106298;1270;108983;-73
2022/02/27 09:33:34;;;;;;;26.10;16.10;;;;;;;3.65;66.62;102173.95;106302;1271;138470;-72
2022/02/27 09:36:07;;;;;;;30.30;18.00;;;;;;;3.61;66.67;102170.77;106330;1269;96596;-72
2022/02/27 09:38:36;;;;;;;27.80;17.50;;;;;;;3.58;66.71;102169.30;106297;1270;96336;-72
2022/02/27 09:41:05;;;;;;;24.00;16.10;;;;;;;3.50;66.52;102172.34;106148;1271;137909;-73
2022/02/27 09:43:33;;;;;;;24.80;16.80;;;;;;;3.50;66.78;102175.10;106192;1270;108966;-72
2022/02/27 09:46:03;;;;;;;23.70;14.50;;;;;;;3.51;66.48;102175.13;106235;1271;138863;-71
2022/02/27 09:48:33;;;;;;;22.70;14.40;;;;;;;3.50;66.67;102177.33;106293;1270;96535;-72
2022/02/27 09:51:02;;;;;;;87.50;44.60;;;;;;;3.50;66.72;102179.05;106265;1270;137767;-73
2022/02/27 09:53:31;;;;;;;32.10;17.90;;;;;;;3.52;66.94;102180.99;106345;1271;110286;-71
2022/02/27 09:55:59;;;;;;;22.50;13.30;;;;;;;3.56;66.83;102184.36;106318;1270;107703;-72
2022/02/27 09:58:28;;;;;;;19.20;13.30;;;;;;;3.52;66.57;102180.14;106191;1270;138672;-72
2022/02/27 10:00:56;;;;;;;21.50;13.70;;;;;;;3.46;66.65;102177.73;106250;1268;96489;-72
2022/02/27 10:03:28;;;;;;;18.90;13.20;;;;;;;3.39;66.73;102176.33;106185;1270;137566;-72
2022/02/27 10:06:02;;;;;;;21.60;13.30;;;;;;;3.35;66.92;102173.81;106303;1269;111253;-72
2022/02/27 10:08:40;;;;;;;25.90;14.40;;;;;;;3.36;66.95;102172.29;106334;1269;109073;-73
2022/02/27 10:11:11;;;;;;;23.50;15.00;;;;;;;3.38;66.84;102170.44;106214;1271;137712;-72
2022/02/27 10:13:42;;;;;;;25.00;15.20;;;;;;;3.34;66.55;102167.26;106430;1269;96487;-72
2022/02/27 10:16:13;;;;;;;25.10;15.20;;;;;;;3.32;66.59;102168.23;106132;1268;137315;-70
2022/02/27 10:18:45;;;;;;;26.00;15.30;;;;;;;3.33;66.79;102165.51;107818;1270;110168;-71
2022/02/27 10:21:22;;;;;;;24.30;15.10;;;;;;;3.34;66.68;102164.67;107738;1268;139039;-71
2022/02/27 10:24:13;;;;;;;25.00;15.00;;;;;;;3.38;66.79;102164.27;107820;1269;109227;-71
2022/02/27 10:26:43;;;;;;;25.00;14.90;;;;;;;3.41;66.90;102162.48;107882;1269;95521;-71
2022/02/27 10:29:12;;;;;;;25.80;14.50;;;;;;;3.47;67.12;102160.56;107781;1269;137785;-71
2022/02/27 10:31:43;;;;;;;24.00;14.20;;;;;;;3.46;66.59;102164.67;107880;1267;109162;-71
2022/02/27 10:34:16;;;;;;;26.10;14.60;;;;;;;3.43;66.75;102163.21;107842;1269;138014;-71
2022/02/27 10:36:59;;;;;;;25.30;14.70;;;;;;;3.43;66.58;102166.31;107878;1268;107806;-71
2022/02/27 10:39:34;;;;;;;26.50;14.80;;;;;;;3.44;66.89;102165.49;107756;1269;137977;-72
2022/02/27 10:42:12;;;;;;;25.70;15.80;;;;;;;3.48;66.73;102168.16;106638;1270;96481;-73
2022/02/27 10:44:43;;;;;;;26.90;15.40;;;;;;;3.47;66.46;102163.34;106317;1271;111029;-72
2022/02/27 10:47:17;;;;;;;29.60;17.10;;;;;;;3.38;66.08;102164.45;106266;1271;137565;-71
2022/02/27 10:49:47;;;;;;;28.70;17.20;;;;;;;3.29;66.16;102166.96;107909;1269;108654;-72
2022/02/27 10:52:21;;;;;;;24.60;16.70;;;;;;;3.23;66.45;102166.27;107737;1269;138623;-71
2022/02/27 10:54:52;;;;;;;29.40;16.60;;;;;;;3.16;66.39;102164.68;107920;1269;94610;-71
2022/02/27 10:57:35;;;;;;;26.10;15.30;;;;;;;3.03;66.18;102163.42;107797;1270;138309;-72
2022/02/27 11:00:14;;;;;;;23.00;15.40;;;;;;;2.95;66.57;102160.12;107852;1270;107671;-72
2022/02/27 11:02:44;;;;;;;25.80;15.60;;;;;;;2.95;66.82;102155.64;106456;1269;109352;-71
2022/02/27 11:05:20;;;;;;;23.60;15.20;;;;;;;2.96;66.93;102149.65;106279;1270;139345;-71
2022/02/27 11:07:55;;;;;;;24.90;16.00;;;;;;;2.99;66.89;102148.36;106153;1270;96473;-72
2022/02/27 11:10:26;;;;;;;28.80;16.70;;;;;;;3.01;67.02;102145.35;106229;1270;137635;-71
2022/02/27 11:12:57;;;;;;;23.00;15.10;;;;;;;3.10;67.05;102140.27;106328;1268;107661;-72
2022/02/27 11:15:27;;;;;;;21.10;15.10;;;;;;;3.17;66.98;102143.04;106183;1270;137990;-71